FFC weather

Peachtree City Falcon Field
Atlanta, Georgia, United States

Public forecast

Using degrees Fahrenheit for public forecast. Weather courtesy of forecast.io.

Current aviation weather report (METAR) for Peachtree City Falcon Field

Retrieved 2019/10/21 14:19 UTC (39 minutes ago):

KFFC 211419Z AUTO 15003KT 10SM FEW006 19/17 A3002 RMK AO2 T01890172

Closest aviation forecast (TAF) to Peachtree City Falcon Field

Closest forecast is Hartsfield Jackson Atlanta International Airport, 18.3 nm (33.8 km) NNE. Retrieved 2019/10/21 12:36 UTC (2 hours ago):

TAF KATL 211133Z 2112/2218 13003KT P6SM FEW005 SCT180 SCT250 TEMPO 2112/2113 4SM BR BKN002 FM211300 11004KT P6SM SCT010 SCT250 FM211600 13008KT P6SM SCT025 BKN040 FM211700 16008KT P6SM BKN040 BKN090 FM220200 15007KT P6SM -SHRA SCT010 OVC025 PROB30 2202/2208 5SM -TSRA BR SCT005 OVC015CB FM221100 30010KT P6SM BKN020